Time;durP1;ratioP1;P1;durP2;ratioP2;P2;SDS_P1;SDS_P2;PMS_P1;PMS_P2;Temp;Humidity;BMP_temperature;BMP_pressure;BME280_temperature;BME280_humidity;BME280_pressure;Samples;Min_cycle;Max_cycle;Signal;HPM_P1;HPM_P2
2022/01/10 18:15:34;;;;;;;;;;;;;;;;;;;;;
2022/01/10 18:18:00;;;;;;;97.05;60.85;;;;;;;;;;5129796;27;20112;-78
2022/01/10 18:20:25;;;;;;;113.68;68.32;;;;;;;;;;5126831;27;20024;-77
2022/01/10 18:22:51;;;;;;;72.18;46.92;;;;;;;;;;5117066;27;20031;-80
2022/01/10 18:25:17;;;;;;;58.55;40.55;;;;;;;;;;5110947;28;20068;-78
2022/01/10 18:27:44;;;;;;;89.40;54.72;;;;;;;;;;5111164;28;20027;-78
2022/01/10 18:30:11;;;;;;;165.93;90.72;;;;;;;;;;5115093;27;20012;-81
2022/01/10 18:32:37;;;;;;;290.00;149.95;;;;;;;;;;5124857;27;20517;-79
2022/01/10 18:35:03;;;;;;;62.97;36.38;;;;;;;;;;5124339;27;20031;-81
2022/01/10 18:37:28;;;;;;;50.17;29.60;;;;;;;;;;5121539;27;20664;-79
2022/01/10 18:39:54;;;;;;;33.50;23.63;;;;;;;;;;5121815;27;20015;-80
2022/01/10 18:42:20;;;;;;;18.77;16.45;;;;;;;;;;5118380;27;20018;-81
2022/01/10 18:44:45;;;;;;;13.20;9.88;;;;;;;;;;5116986;27;20028;-80
2022/01/10 18:47:11;;;;;;;8.55;7.47;;;;;;;;;;5131590;27;20084;-85
2022/01/10 18:49:45;;;;;;;5.90;4.90;;;;;;;;;;5131990;27;20018;-79
2022/01/10 18:52:11;;;;;;;8.30;7.50;;;;;;;;;;5132890;27;20045;-79
2022/01/10 18:54:37;;;;;;;9.82;7.90;;;;;;;;;;5120791;27;20458;-80
2022/01/10 18:57:03;;;;;;;7.05;6.25;;;;;;;;;;5111678;28;20114;-81
2022/01/10 18:59:29;;;;;;;7.93;6.32;;;;;;;;;;5112168;28;20019;-76
2022/01/10 19:01:54;;;;;;;6.10;5.18;;;;;;;;;;5112434;27;20030;-78
2022/01/10 19:04:20;;;;;;;9.23;8.32;;;;;;;;;;5124230;27;20019;-80
2022/01/10 19:06:46;;;;;;;4.05;3.75;;;;;;;;;;4996986;27;20080;-78
2022/01/10 19:09:13;;;;;;;3.95;3.65;;;;;;;;;;5081281;28;20023;-80
2022/01/10 19:11:40;;;;;;;4.93;4.43;;;;;;;;;;5069813;28;20024;-80
2022/01/10 19:14:06;;;;;;;4.05;3.75;;;;;;;;;;5071131;28;20618;-80
2022/01/10 19:16:31;;;;;;;4.00;3.10;;;;;;;;;;5083818;28;20391;-74
2022/01/10 19:18:57;;;;;;;4.70;3.97;;;;;;;;;;5070029;28;20039;-74
2022/01/10 19:21:22;;;;;;;3.67;3.20;;;;;;;;;;5087901;28;20111;-76
2022/01/10 19:23:48;;;;;;;6.53;4.60;;;;;;;;;;5091375;28;20362;-77
2022/01/10 19:26:13;;;;;;;4.90;3.28;;;;;;;;;;5077513;28;20025;-78
2022/01/10 19:28:39;;;;;;;10.68;5.28;;;;;;;;;;5070528;28;20036;-76
2022/01/10 19:31:04;;;;;;;23.35;13.23;;;;;;;;;;5067756;28;20791;-78
2022/01/10 19:33:30;;;;;;;23.38;11.02;;;;;;;;;;5065813;28;20020;-78
2022/01/10 19:35:58;;;;;;;23.13;11.50;;;;;;;;;;5063614;28;20419;-78
2022/01/10 19:38:23;;;;;;;28.80;14.25;;;;;;;;;;5061685;28;20116;-78
2022/01/10 19:40:49;;;;;;;25.42;13.85;;;;;;;;;;5064284;28;20446;-77
2022/01/10 19:43:14;;;;;;;30.33;20.15;;;;;;;;;;5069647;28;20020;-77
2022/01/10 19:45:40;;;;;;;10.73;7.57;;;;;;;;;;5063539;28;20455;-77
2022/01/10 19:48:07;;;;;;;19.85;7.65;;;;;;;;;;5065007;28;20017;-76
2022/01/10 19:50:33;;;;;;;11.85;6.07;;;;;;;;;;5067441;28;20350;-75
2022/01/10 19:52:58;;;;;;;52.20;19.73;;;;;;;;;;5068880;28;20024;-75
2022/01/10 19:55:23;;;;;;;30.40;14.13;;;;;;;;;;5067836;28;20024;-78
2022/01/10 19:57:49;;;;;;;52.95;23.45;;;;;;;;;;5066276;28;20032;-76
2022/01/10 20:00:16;;;;;;;28.60;16.52;;;;;;;;;;5062037;28;20063;-77
2022/01/10 20:02:41;;;;;;;25.50;15.40;;;;;;;;;;5067013;28;20020;-76
2022/01/10 20:05:08;;;;;;;16.40;10.07;;;;;;;;;;5062040;28;20031;-76
2022/01/10 20:07:33;;;;;;;14.52;9.48;;;;;;;;;;5067028;28;20028;-77
2022/01/10 20:09:59;;;;;;;11.23;6.38;;;;;;;;;;5062647;28;20020;-76
2022/01/10 20:12:28;;;;;;;11.88;7.05;;;;;;;;;;5065990;28;20043;-76
2022/01/10 20:14:54;;;;;;;12.10;8.45;;;;;;;;;;5065189;28;20096;-76
2022/01/10 20:17:19;;;;;;;9.52;6.35;;;;;;;;;;5066451;28;20111;-77
2022/01/10 20:19:47;;;;;;;15.15;9.25;;;;;;;;;;5066159;28;20111;-77
2022/01/10 20:22:16;;;;;;;6.60;4.78;;;;;;;;;;5065123;28;20024;-75
2022/01/10 20:24:41;;;;;;;8.27;5.80;;;;;;;;;;5064186;28;20043;-76
2022/01/10 20:27:10;;;;;;;5.35;4.30;;;;;;;;;;5065946;28;20522;-76
2022/01/10 20:29:47;;;;;;;4.95;4.07;;;;;;;;;;5067444;28;20086;-76
2022/01/10 20:32:21;;;;;;;3.75;3.30;;;;;;;;;;5067217;28;20032;-76
2022/01/10 20:34:47;;;;;;;4.35;2.30;;;;;;;;;;5062648;28;20471;-77
2022/01/10 20:37:12;;;;;;;2.55;2.35;;;;;;;;;;5065309;28;20064;-76
2022/01/10 20:39:38;;;;;;;3.55;2.65;;;;;;;;;;5063599;28;20486;-76
2022/01/10 20:42:03;;;;;;;2.38;2.17;;;;;;;;;;5065689;28;20040;-75
2022/01/10 20:44:29;;;;;;;2.42;2.22;;;;;;;;;;5057541;28;20028;-77
2022/01/10 20:46:54;;;;;;;3.58;2.70;;;;;;;;;;5056418;28;20027;-78
2022/01/10 20:49:20;;;;;;;3.58;2.90;;;;;;;;;;5056162;28;20848;-78
2022/01/10 20:51:45;;;;;;;7.63;5.18;;;;;;;;;;5055079;28;20115;-77
2022/01/10 20:54:10;;;;;;;8.30;4.82;;;;;;;;;;5055767;28;20037;-77
2022/01/10 20:56:40;;;;;;;11.38;7.95;;;;;;;;;;5055633;28;20384;-78
2022/01/10 20:59:06;;;;;;;37.08;21.30;;;;;;;;;;5057104;28;20024;-76
2022/01/10 21:01:31;;;;;;;22.50;15.43;;;;;;;;;;5055353;28;20115;-78
2022/01/10 21:04:04;;;;;;;13.02;8.65;;;;;;;;;;5055118;28;20033;-81
2022/01/10 21:06:32;;;;;;;16.83;9.02;;;;;;;;;;5055356;28;20093;-78
2022/01/10 21:08:57;;;;;;;15.55;8.45;;;;;;;;;;5056138;28;20016;-81
2022/01/10 21:11:23;;;;;;;10.43;7.43;;;;;;;;;;5073875;28;20047;-80
2022/01/10 21:13:48;;;;;;;4.97;4.45;;;;;;;;;;5073646;28;20048;-77
2022/01/10 21:16:14;;;;;;;6.72;5.30;;;;;;;;;;5075613;28;20713;-81
2022/01/10 21:18:40;;;;;;;7.65;5.20;;;;;;;;;;5075061;28;20029;-80
2022/01/10 21:21:05;;;;;;;8.90;6.40;;;;;;;;;;5074543;28;20024;-81
2022/01/10 21:23:32;;;;;;;5.72;4.03;;;;;;;;;;5071488;28;20397;-79
2022/01/10 21:26:01;;;;;;;3.45;3.15;;;;;;;;;;5053658;28;20448;-79
2022/01/10 21:28:28;;;;;;;4.88;4.35;;;;;;;;;;5054026;28;20111;-77
2022/01/10 21:30:53;;;;;;;4.18;3.47;;;;;;;;;;5054026;28;20025;-79
2022/01/10 21:33:18;;;;;;;12.40;8.50;;;;;;;;;;5053446;28;20050;-79
2022/01/10 21:35:47;;;;;;;6.32;4.70;;;;;;;;;;5056168;28;20028;-78
2022/01/10 21:38:13;;;;;;;11.63;7.32;;;;;;;;;;5054311;28;20032;-77
2022/01/10 21:40:38;;;;;;;4.28;3.50;;;;;;;;;;5055023;28;20024;-79
2022/01/10 21:43:04;;;;;;;4.03;3.10;;;;;;;;;;5054539;28;20418;-77
2022/01/10 21:45:30;;;;;;;9.35;6.38;;;;;;;;;;5054901;28;20025;-76
2022/01/10 21:47:55;;;;;;;5.78;3.83;;;;;;;;;;5052993;28;20566;-79
2022/01/10 21:50:22;;;;;;;3.45;2.50;;;;;;;;;;5053508;28;20074;-79
2022/01/10 21:52:47;;;;;;;3.25;2.13;;;;;;;;;;5053227;28;20029;-78
2022/01/10 21:55:14;;;;;;;3.78;2.13;;;;;;;;;;5052924;28;20094;-81
2022/01/10 21:57:40;;;;;;;3.50;2.20;;;;;;;;;;5066970;28;20031;-79
2022/01/10 22:00:07;;;;;;;2.28;1.90;;;;;;;;;;5073227;28;20024;-79
2022/01/10 22:02:32;;;;;;;3.65;2.13;;;;;;;;;;5073078;28;20024;-79
2022/01/10 22:05:16;;;;;;;3.65;2.22;;;;;;;;;;5073904;28;20031;-77
2022/01/10 22:07:47;;;;;;;2.78;1.88;;;;;;;;;;5075435;28;20474;-81
2022/01/10 22:10:13;;;;;;;2.15;1.50;;;;;;;;;;5074972;28;20200;-77
2022/01/10 22:12:38;;;;;;;5.15;3.28;;;;;;;;;;5073136;28;20054;-79
2022/01/10 22:15:05;;;;;;;4.20;2.88;;;;;;;;;;5073344;28;20427;-79
2022/01/10 22:17:30;;;;;;;3.10;2.28;;;;;;;;;;5074710;28;20023;-78
2022/01/10 22:19:58;;;;;;;3.63;2.40;;;;;;;;;;5074907;28;20482;-80
2022/01/10 22:22:23;;;;;;;2.28;1.90;;;;;;;;;;5074851;28;20028;-80
2022/01/10 22:24:48;;;;;;;1.98;1.70;;;;;;;;;;5073375;28;20026;-79
2022/01/10 22:27:14;;;;;;;2.70;1.70;;;;;;;;;;5075127;28;20028;-78
2022/01/10 22:29:39;;;;;;;1.55;1.42;;;;;;;;;;5074529;28;20042;-78
2022/01/10 22:32:05;;;;;;;2.08;1.67;;;;;;;;;;5073639;28;20719;-79
2022/01/10 22:34:31;;;;;;;1.20;1.10;;;;;;;;;;5075310;28;20019;-80
2022/01/10 22:36:59;;;;;;;1.70;1.52;;;;;;;;;;5073273;28;20032;-77
2022/01/10 22:39:25;;;;;;;1.52;1.20;;;;;;;;;;5074757;28;20233;-79
2022/01/10 22:41:50;;;;;;;1.98;1.10;;;;;;;;;;5073153;28;20328;-80
2022/01/10 22:44:15;;;;;;;0.90;0.90;;;;;;;;;;5072853;28;20839;-79
2022/01/10 22:46:41;;;;;;;0.80;0.80;;;;;;;;;;5073090;28;20439;-80
2022/01/10 22:49:06;;;;;;;0.77;0.65;;;;;;;;;;5074233;28;20062;-80
2022/01/10 22:51:31;;;;;;;1.13;1.02;;;;;;;;;;5073470;28;20021;-78
2022/01/10 22:54:00;;;;;;;0.80;0.70;;;;;;;;;;5072899;28;20047;-80
2022/01/10 22:56:25;;;;;;;0.80;0.68;;;;;;;;;;5072750;28;20042;-79
2022/01/10 22:58:51;;;;;;;1.02;0.75;;;;;;;;;;5073058;28;20028;-81
2022/01/10 23:01:16;;;;;;;0.82;0.80;;;;;;;;;;5075933;28;20020;-80
2022/01/10 23:03:43;;;;;;;1.98;1.10;;;;;;;;;;5073511;28;20021;-80
2022/01/10 23:06:10;;;;;;;1.02;0.80;;;;;;;;;;5057646;28;20024;-79
2022/01/10 23:08:35;;;;;;;1.85;1.08;;;;;;;;;;5073421;28;20020;-80
2022/01/10 23:11:03;;;;;;;0.68;0.68;;;;;;;;;;5072762;28;20372;-80
2022/01/10 23:13:28;;;;;;;2.05;1.30;;;;;;;;;;5056206;28;20044;-82
2022/01/10 23:15:54;;;;;;;1.73;1.27;;;;;;;;;;5057411;28;20020;-79
2022/01/10 23:18:19;;;;;;;1.63;0.90;;;;;;;;;;5072934;28;20047;-77
2022/01/10 23:20:44;;;;;;;2.72;1.60;;;;;;;;;;5058126;28;20031;-78
2022/01/10 23:23:10;;;;;;;3.83;2.28;;;;;;;;;;5073046;28;20105;-80
2022/01/10 23:25:35;;;;;;;1.08;0.98;;;;;;;;;;5057574;28;20031;-80
2022/01/10 23:28:00;;;;;;;1.75;1.02;;;;;;;;;;5057619;28;20025;-79
2022/01/10 23:30:26;;;;;;;1.63;1.15;;;;;;;;;;5057614;28;20792;-79
2022/01/10 23:32:51;;;;;;;0.60;0.60;;;;;;;;;;5072648;28;20390;-79
2022/01/10 23:35:17;;;;;;;0.80;0.60;;;;;;;;;;5073048;28;20379;-77
2022/01/10 23:37:42;;;;;;;1.02;0.70;;;;;;;;;;5072823;28;20485;-78
2022/01/10 23:40:09;;;;;;;0.40;0.40;;;;;;;;;;5072391;28;20021;-78
2022/01/10 23:42:34;;;;;;;0.40;0.40;;;;;;;;;;5057381;28;20052;-81
2022/01/10 23:45:00;;;;;;;0.45;0.40;;;;;;;;;;5072620;28;20060;-80
2022/01/10 23:47:26;;;;;;;0.50;0.50;;;;;;;;;;5072554;28;20029;-78
2022/01/10 23:49:58;;;;;;;0.45;0.43;;;;;;;;;;5055151;28;20543;-79
2022/01/10 23:52:30;;;;;;;1.38;0.80;;;;;;;;;;5071155;28;20425;-78
2022/01/10 23:54:56;;;;;;;0.50;0.47;;;;;;;;;;5065792;28;20039;-79
2022/01/10 23:57:21;;;;;;;0.70;0.50;;;;;;;;;;5063706;28;20028;-79
2022/01/10 23:59:47;;;;;;;1.20;0.85;;;;;;;;;;5072117;28;20414;-82
